This is the latest recevied weather packets stored in our database for station/object ED4YAZ-13. If no packets are shown the sender has not sent any weather packets the latest 10 day(s).
| Time | Temp. | Humidity | Pressure | Rain* | Wind** | Luminosity | Snow |
|---|---|---|---|---|---|---|---|
| 1777843877 | 13.33° C | 66% | 1014.7 hPa | - | - | - | - |
| 1777843873 | 13.33° C | 66% | 1014.7 hPa | - | - | - | - |
| 1777843265 | 13.33° C | 66% | 1014.6 hPa | - | - | - | - |
| 1777842663 | 13.33° C | 66% | 1014.6 hPa | - | - | - | - |
| 1777842063 | 13.33° C | 66% | 1014.6 hPa | - | - | - | - |
| 1777842063 | 13.33° C | 66% | 1014.6 hPa | - | - | - | - |
| 1777841463 | 13.33° C | 68% | 1014.6 hPa | - | - | - | - |
| 1777841463 | 13.33° C | 68% | 1014.6 hPa | - | - | - | - |
| 1777840963 | 13.33° C | 69% | 1014.5 hPa | - | - | - | - |
| 1777840912 | 13.33° C | 69% | 1014.5 hPa | - | - | - | - |
| 1777840861 | 13.33° C | 69% | 1014.5 hPa | - | - | - | - |
| 1777840861 | 13.33° C | 69% | 1014.5 hPa | - | - | - | - |
| 1777840257 | 13.33° C | 68% | 1014.4 hPa | - | - | - | - |
| 1777839655 | 13.33° C | 69% | 1014.3 hPa | - | - | - | - |
| 1777839054 | 13.33° C | 68% | 1014.2 hPa | - | - | - | - |
| 1777839054 | 13.33° C | 68% | 1014.2 hPa | - | - | - | - |
| 1777838448 | 13.33° C | 67% | 1013.9 hPa | - | - | - | - |
| 1777837848 | 13.89° C | 64% | 1013.7 hPa | - | - | - | - |
| 1777836778 | 13.89° C | 62% | 1013.6 hPa | - | - | - | - |
| 1777836778 | 13.89° C | 62% | 1013.6 hPa | - | - | - | - |
| 1777836165 | 13.89° C | 62% | 1013.6 hPa | - | - | - | - |
| 1777835565 | 13.33° C | 62% | 1013.5 hPa | - | - | - | - |
| 1777834965 | 13.89° C | 62% | 1013.3 hPa | - | - | - | - |
| 1777834361 | 13.89° C | 65% | 1013.1 hPa | - | - | - | - |
| 1777833761 | 15° C | 61% | 1012.3 hPa | - | - | - | - |
* Rain since midnight (hover to see other rain measurements)
** Current wind speed in m/s (hover to see current wind gust speed)